sensor_id;sensor_type;location;lat;lon;timestamp;P1;durP1;ratioP1;P2;durP2;ratioP2
7169;SDS011;3626;42.656;23.312;2023-08-24T00:00:03;15.43;;;7.95;;
7169;SDS011;3626;42.656;23.312;2023-08-24T00:00:10;15.60;;;8.10;;
7169;SDS011;3626;42.656;23.312;2023-08-24T00:00:17;14.52;;;7.96;;
7169;SDS011;3626;42.656;23.312;2023-08-24T00:00:24;14.00;;;8.30;;
7169;SDS011;3626;42.656;23.312;2023-08-24T00:00:32;13.90;;;8.30;;
7169;SDS011;3626;42.656;23.312;2023-08-24T00:00:41;12.23;;;8.03;;
7169;SDS011;3626;42.656;23.312;2023-08-24T00:00:47;12.10;;;7.93;;
7169;SDS011;3626;42.656;23.312;2023-08-24T00:00:56;11.80;;;8.00;;
7169;SDS011;3626;42.656;23.312;2023-08-24T00:01:01;11.32;;;8.02;;
7169;SDS011;3626;42.656;23.312;2023-08-24T00:01:07;11.50;;;7.95;;
7169;SDS011;3626;42.656;23.312;2023-08-24T00:01:15;10.63;;;7.60;;
7169;SDS011;3626;42.656;23.312;2023-08-24T00:01:22;10.13;;;7.43;;
7169;SDS011;3626;42.656;23.312;2023-08-24T00:01:28;10.18;;;7.46;;
7169;SDS011;3626;42.656;23.312;2023-08-24T00:01:34;11.02;;;7.65;;
7169;SDS011;3626;42.656;23.312;2023-08-24T00:01:41;11.40;;;7.80;;
7169;SDS011;3626;42.656;23.312;2023-08-24T00:01:47;12.70;;;7.93;;
7169;SDS011;3626;42.656;23.312;2023-08-24T00:01:52;14.40;;;8.03;;
7169;SDS011;3626;42.656;23.312;2023-08-24T00:01:58;15.18;;;8.18;;
7169;SDS011;3626;42.656;23.312;2023-08-24T00:02:05;15.02;;;8.18;;
7169;SDS011;3626;42.656;23.312;2023-08-24T00:02:11;15.18;;;8.35;;
7169;SDS011;3626;42.656;23.312;2023-08-24T00:02:17;15.43;;;8.60;;
7169;SDS011;3626;42.656;23.312;2023-08-24T00:02:23;16.15;;;8.75;;
7169;SDS011;3626;42.656;23.312;2023-08-24T00:02:29;16.88;;;8.80;;
7169;SDS011;3626;42.656;23.312;2023-08-24T00:02:35;16.50;;;8.75;;
7169;SDS011;3626;42.656;23.312;2023-08-24T00:02:40;16.63;;;8.60;;
7169;SDS011;3626;42.656;23.312;2023-08-24T00:02:47;15.93;;;8.52;;
7169;SDS011;3626;42.656;23.312;2023-08-24T00:02:52;13.60;;;8.30;;
7169;SDS011;3626;42.656;23.312;2023-08-24T00:02:58;12.77;;;8.15;;
7169;SDS011;3626;42.656;23.312;2023-08-24T00:03:04;12.82;;;8.15;;
7169;SDS011;3626;42.656;23.312;2023-08-24T00:03:10;13.57;;;8.20;;
7169;SDS011;3626;42.656;23.312;2023-08-24T00:03:16;13.50;;;8.10;;
7169;SDS011;3626;42.656;23.312;2023-08-24T00:03:22;13.37;;;8.10;;
7169;SDS011;3626;42.656;23.312;2023-08-24T00:03:28;12.77;;;8.18;;
7169;SDS011;3626;42.656;23.312;2023-08-24T00:03:34;12.70;;;8.30;;
7169;SDS011;3626;42.656;23.312;2023-08-24T00:03:39;12.40;;;8.45;;
7169;SDS011;3626;42.656;23.312;2023-08-24T00:03:45;12.25;;;8.50;;
7169;SDS011;3626;42.656;23.312;2023-08-24T00:03:53;12.66;;;8.36;;
7169;SDS011;3626;42.656;23.312;2023-08-24T00:03:58;12.98;;;8.30;;
7169;SDS011;3626;42.656;23.312;2023-08-24T00:04:04;13.00;;;8.30;;
7169;SDS011;3626;42.656;23.312;2023-08-24T00:04:10;12.38;;;8.35;;
7169;SDS011;3626;42.656;23.312;2023-08-24T00:04:16;12.35;;;8.30;;
7169;SDS011;3626;42.656;23.312;2023-08-24T00:04:22;12.50;;;8.30;;
7169;SDS011;3626;42.656;23.312;2023-08-24T00:04:28;12.45;;;8.25;;
7169;SDS011;3626;42.656;23.312;2023-08-24T00:04:34;12.60;;;8.25;;
7169;SDS011;3626;42.656;23.312;2023-08-24T00:04:41;13.37;;;8.20;;
7169;SDS011;3626;42.656;23.312;2023-08-24T00:04:47;13.40;;;8.27;;
7169;SDS011;3626;42.656;23.312;2023-08-24T00:04:53;13.32;;;8.55;;
7169;SDS011;3626;42.656;23.312;2023-08-24T00:04:59;13.57;;;8.77;;
7169;SDS011;3626;42.656;23.312;2023-08-24T00:05:06;13.37;;;8.80;;
7169;SDS011;3626;42.656;23.312;2023-08-24T00:05:12;13.40;;;8.80;;
7169;SDS011;3626;42.656;23.312;2023-08-24T00:05:18;13.50;;;8.90;;
7169;SDS011;3626;42.656;23.312;2023-08-24T00:05:24;12.98;;;8.72;;
7169;SDS011;3626;42.656;23.312;2023-08-24T00:05:32;12.57;;;8.43;;
7169;SDS011;3626;42.656;23.312;2023-08-24T00:05:40;11.83;;;8.27;;
7169;SDS011;3626;42.656;23.312;2023-08-24T00:05:47;11.70;;;8.27;;
7169;SDS011;3626;42.656;23.312;2023-08-24T00:05:53;11.20;;;8.05;;
7169;SDS011;3626;42.656;23.312;2023-08-24T00:06:00;11.60;;;8.23;;
7169;SDS011;3626;42.656;23.312;2023-08-24T00:06:06;11.60;;;8.18;;
7169;SDS011;3626;42.656;23.312;2023-08-24T00:06:11;12.15;;;8.30;;
7169;SDS011;3626;42.656;23.312;2023-08-24T00:06:17;12.23;;;8.37;;
7169;SDS011;3626;42.656;23.312;2023-08-24T00:06:23;12.75;;;8.70;;
7169;SDS011;3626;42.656;23.312;2023-08-24T00:06:29;13.00;;;8.93;;
7169;SDS011;3626;42.656;23.312;2023-08-24T00:06:35;13.45;;;9.20;;
7169;SDS011;3626;42.656;23.312;2023-08-24T00:06:41;13.90;;;9.30;;
7169;SDS011;3626;42.656;23.312;2023-08-24T00:06:47;13.90;;;9.37;;
7169;SDS011;3626;42.656;23.312;2023-08-24T00:06:53;14.52;;;9.60;;
7169;SDS011;3626;42.656;23.312;2023-08-24T00:06:59;14.40;;;9.23;;
7169;SDS011;3626;42.656;23.312;2023-08-24T00:07:04;14.48;;;9.23;;
7169;SDS011;3626;42.656;23.312;2023-08-24T00:07:10;14.43;;;9.20;;
7169;SDS011;3626;42.656;23.312;2023-08-24T00:07:16;14.45;;;9.20;;
7169;SDS011;3626;42.656;23.312;2023-08-24T00:07:22;14.67;;;9.03;;
7169;SDS011;3626;42.656;23.312;2023-08-24T00:07:27;14.63;;;9.10;;
7169;SDS011;3626;42.656;23.312;2023-08-24T00:07:33;14.60;;;9.07;;
7169;SDS011;3626;42.656;23.312;2023-08-24T00:07:39;14.17;;;9.10;;
7169;SDS011;3626;42.656;23.312;2023-08-24T00:07:46;14.86;;;9.00;;
7169;SDS011;3626;42.656;23.312;2023-08-24T00:07:53;14.80;;;8.90;;
7169;SDS011;3626;42.656;23.312;2023-08-24T00:07:59;14.48;;;9.02;;
7169;SDS011;3626;42.656;23.312;2023-08-24T00:08:05;14.60;;;9.10;;
7169;SDS011;3626;42.656;23.312;2023-08-24T00:08:11;14.55;;;9.10;;
7169;SDS011;3626;42.656;23.312;2023-08-24T00:08:17;14.32;;;9.10;;
7169;SDS011;3626;42.656;23.312;2023-08-24T00:08:22;13.85;;;9.10;;
7169;SDS011;3626;42.656;23.312;2023-08-24T00:08:28;14.27;;;8.93;;
7169;SDS011;3626;42.656;23.312;2023-08-24T00:08:34;14.13;;;8.68;;
7169;SDS011;3626;42.656;23.312;2023-08-24T00:08:40;14.48;;;8.70;;
7169;SDS011;3626;42.656;23.312;2023-08-24T00:08:45;14.80;;;8.70;;
7169;SDS011;3626;42.656;23.312;2023-08-24T00:08:52;15.00;;;8.77;;
7169;SDS011;3626;42.656;23.312;2023-08-24T00:08:58;14.68;;;8.48;;
7169;SDS011;3626;42.656;23.312;2023-08-24T00:09:04;14.37;;;8.30;;
7169;SDS011;3626;42.656;23.312;2023-08-24T00:09:11;14.03;;;8.13;;
7169;SDS011;3626;42.656;23.312;2023-08-24T00:09:16;14.85;;;8.00;;
7169;SDS011;3626;42.656;23.312;2023-08-24T00:09:22;15.43;;;8.13;;
7169;SDS011;3626;42.656;23.312;2023-08-24T00:09:28;15.05;;;8.18;;
7169;SDS011;3626;42.656;23.312;2023-08-24T00:09:34;15.14;;;8.22;;
7169;SDS011;3626;42.656;23.312;2023-08-24T00:09:40;14.57;;;8.10;;
7169;SDS011;3626;42.656;23.312;2023-08-24T00:09:46;13.32;;;8.10;;
7169;SDS011;3626;42.656;23.312;2023-08-24T00:09:52;12.85;;;8.02;;
7169;SDS011;3626;42.656;23.312;2023-08-24T00:09:58;13.43;;;8.10;;
7169;SDS011;3626;42.656;23.312;2023-08-24T00:10:04;13.98;;;8.43;;
7169;SDS011;3626;42.656;23.312;2023-08-24T00:10:10;14.32;;;8.60;;
7169;SDS011;3626;42.656;23.312;2023-08-24T00:10:16;13.90;;;8.75;;
7169;SDS011;3626;42.656;23.312;2023-08-24T00:10:22;13.10;;;8.57;;
7169;SDS011;3626;42.656;23.312;2023-08-24T00:10:28;13.70;;;8.67;;
7169;SDS011;3626;42.656;23.312;2023-08-24T00:10:34;13.50;;;8.60;;
7169;SDS011;3626;42.656;23.312;2023-08-24T00:10:42;14.00;;;8.73;;
7169;SDS011;3626;42.656;23.312;2023-08-24T00:10:49;15.47;;;8.88;;
7169;SDS011;3626;42.656;23.312;2023-08-24T00:10:55;15.30;;;8.75;;
7169;SDS011;3626;42.656;23.312;2023-08-24T00:11:00;16.27;;;8.83;;
7169;SDS011;3626;42.656;23.312;2023-08-24T00:11:07;16.17;;;8.60;;
7169;SDS011;3626;42.656;23.312;2023-08-24T00:11:13;17.23;;;8.68;;
7169;SDS011;3626;42.656;23.312;2023-08-24T00:11:20;16.90;;;8.73;;
7169;SDS011;3626;42.656;23.312;2023-08-24T00:11:26;16.38;;;8.77;;
7169;SDS011;3626;42.656;23.312;2023-08-24T00:11:32;15.90;;;8.70;;
7169;SDS011;3626;42.656;23.312;2023-08-24T00:11:39;15.77;;;8.68;;
7169;SDS011;3626;42.656;23.312;2023-08-24T00:11:45;14.67;;;8.63;;
7169;SDS011;3626;42.656;23.312;2023-08-24T00:11:51;14.10;;;8.57;;
7169;SDS011;3626;42.656;23.312;2023-08-24T00:11:57;13.43;;;8.57;;
7169;SDS011;3626;42.656;23.312;2023-08-24T00:12:02;12.60;;;8.40;;
7169;SDS011;3626;42.656;23.312;2023-08-24T00:12:08;12.33;;;8.47;;
7169;SDS011;3626;42.656;23.312;2023-08-24T00:12:15;11.40;;;8.20;;
7169;SDS011;3626;42.656;23.312;2023-08-24T00:12:21;11.90;;;8.25;;
7169;SDS011;3626;42.656;23.312;2023-08-24T00:12:26;12.60;;;8.20;;
7169;SDS011;3626;42.656;23.312;2023-08-24T00:12:32;13.70;;;8.25;;
7169;SDS011;3626;42.656;23.312;2023-08-24T00:12:38;13.77;;;8.30;;
7169;SDS011;3626;42.656;23.312;2023-08-24T00:12:44;13.82;;;8.25;;
7169;SDS011;3626;42.656;23.312;2023-08-24T00:12:50;13.93;;;8.38;;
7169;SDS011;3626;42.656;23.312;2023-08-24T00:12:56;14.40;;;8.60;;
7169;SDS011;3626;42.656;23.312;2023-08-24T00:13:01;15.45;;;8.68;;
7169;SDS011;3626;42.656;23.312;2023-08-24T00:13:08;14.96;;;8.54;;
7169;SDS011;3626;42.656;23.312;2023-08-24T00:13:15;14.90;;;8.60;;
7169;SDS011;3626;42.656;23.312;2023-08-24T00:13:20;14.27;;;8.43;;
7169;SDS011;3626;42.656;23.312;2023-08-24T00:13:26;13.98;;;8.63;;
7169;SDS011;3626;42.656;23.312;2023-08-24T00:13:32;13.45;;;8.55;;
7169;SDS011;3626;42.656;23.312;2023-08-24T00:13:38;13.27;;;8.48;;
7169;SDS011;3626;42.656;23.312;2023-08-24T00:13:43;13.90;;;8.50;;
7169;SDS011;3626;42.656;23.312;2023-08-24T00:13:54;14.10;;;8.23;;
7169;SDS011;3626;42.656;23.312;2023-08-24T00:13:59;13.85;;;8.20;;
7169;SDS011;3626;42.656;23.312;2023-08-24T00:14:05;14.13;;;8.27;;
7169;SDS011;3626;42.656;23.312;2023-08-24T00:14:11;14.98;;;8.43;;
7169;SDS011;3626;42.656;23.312;2023-08-24T00:14:17;15.13;;;8.52;;
7169;SDS011;3626;42.656;23.312;2023-08-24T00:14:23;15.30;;;8.45;;
7169;SDS011;3626;42.656;23.312;2023-08-24T00:14:29;15.03;;;8.40;;
7169;SDS011;3626;42.656;23.312;2023-08-24T00:14:34;15.65;;;8.57;;
7169;SDS011;3626;42.656;23.312;2023-08-24T00:14:40;17.30;;;8.70;;
7169;SDS011;3626;42.656;23.312;2023-08-24T00:14:46;18.60;;;8.77;;
7169;SDS011;3626;42.656;23.312;2023-08-24T00:14:52;18.50;;;8.82;;
7169;SDS011;3626;42.656;23.312;2023-08-24T00:14:57;17.85;;;8.90;;
7169;SDS011;3626;42.656;23.312;2023-08-24T00:15:03;17.38;;;8.80;;
7169;SDS011;3626;42.656;23.312;2023-08-24T00:15:10;17.14;;;8.70;;
7169;SDS011;3626;42.656;23.312;2023-08-24T00:15:17;18.70;;;8.84;;
7169;SDS011;3626;42.656;23.312;2023-08-24T00:15:23;18.80;;;8.80;;
7169;SDS011;3626;42.656;23.312;2023-08-24T00:15:29;18.70;;;8.70;;
7169;SDS011;3626;42.656;23.312;2023-08-24T00:15:35;17.90;;;8.55;;
7169;SDS011;3626;42.656;23.312;2023-08-24T00:15:41;17.55;;;8.57;;
7169;SDS011;3626;42.656;23.312;2023-08-24T00:15:47;15.80;;;8.43;;
7169;SDS011;3626;42.656;23.312;2023-08-24T00:15:53;15.65;;;8.38;;
7169;SDS011;3626;42.656;23.312;2023-08-24T00:15:59;16.00;;;8.27;;
7169;SDS011;3626;42.656;23.312;2023-08-24T00:16:05;16.05;;;8.35;;
7169;SDS011;3626;42.656;23.312;2023-08-24T00:16:11;15.14;;;8.22;;
7169;SDS011;3626;42.656;23.312;2023-08-24T00:16:17;13.50;;;8.00;;
7169;SDS011;3626;42.656;23.312;2023-08-24T00:16:24;13.60;;;8.10;;
7169;SDS011;3626;42.656;23.312;2023-08-24T00:16:30;13.25;;;8.15;;
7169;SDS011;3626;42.656;23.312;2023-08-24T00:16:36;12.77;;;8.07;;
7169;SDS011;3626;42.656;23.312;2023-08-24T00:16:41;11.82;;;8.10;;
7169;SDS011;3626;42.656;23.312;2023-08-24T00:16:47;12.20;;;8.10;;
7169;SDS011;3626;42.656;23.312;2023-08-24T00:16:54;12.15;;;8.25;;
7169;SDS011;3626;42.656;23.312;2023-08-24T00:17:00;11.90;;;8.40;;
7169;SDS011;3626;42.656;23.312;2023-08-24T00:17:06;11.65;;;8.35;;
7169;SDS011;3626;42.656;23.312;2023-08-24T00:17:11;11.57;;;8.38;;
7169;SDS011;3626;42.656;23.312;2023-08-24T00:17:17;11.90;;;8.43;;
7169;SDS011;3626;42.656;23.312;2023-08-24T00:17:23;12.30;;;8.60;;
7169;SDS011;3626;42.656;23.312;2023-08-24T00:17:29;12.94;;;8.68;;
7169;SDS011;3626;42.656;23.312;2023-08-24T00:17:35;13.60;;;8.80;;
7169;SDS011;3626;42.656;23.312;2023-08-24T00:17:42;14.63;;;8.90;;
7169;SDS011;3626;42.656;23.312;2023-08-24T00:17:48;15.45;;;9.20;;
7169;SDS011;3626;42.656;23.312;2023-08-24T00:17:54;16.43;;;9.10;;
7169;SDS011;3626;42.656;23.312;2023-08-24T00:18:00;16.50;;;9.13;;
7169;SDS011;3626;42.656;23.312;2023-08-24T00:18:06;18.30;;;9.23;;
7169;SDS011;3626;42.656;23.312;2023-08-24T00:18:12;18.27;;;9.20;;
7169;SDS011;3626;42.656;23.312;2023-08-24T00:18:18;18.20;;;9.15;;
7169;SDS011;3626;42.656;23.312;2023-08-24T00:18:26;17.70;;;9.00;;
7169;SDS011;3626;42.656;23.312;2023-08-24T00:18:32;17.53;;;8.90;;
7169;SDS011;3626;42.656;23.312;2023-08-24T00:18:38;16.88;;;8.85;;
7169;SDS011;3626;42.656;23.312;2023-08-24T00:18:43;15.90;;;8.68;;
7169;SDS011;3626;42.656;23.312;2023-08-24T00:18:50;15.30;;;8.40;;
7169;SDS011;3626;42.656;23.312;2023-08-24T00:18:56;14.96;;;8.50;;
7169;SDS011;3626;42.656;23.312;2023-08-24T00:19:02;15.00;;;8.43;;
7169;SDS011;3626;42.656;23.312;2023-08-24T00:19:08;13.70;;;8.38;;
7169;SDS011;3626;42.656;23.312;2023-08-24T00:19:14;13.88;;;8.38;;
7169;SDS011;3626;42.656;23.312;2023-08-24T00:19:19;13.25;;;8.30;;
7169;SDS011;3626;42.656;23.312;2023-08-24T00:19:25;13.10;;;8.30;;
7169;SDS011;3626;42.656;23.312;2023-08-24T00:19:31;13.10;;;8.20;;
7169;SDS011;3626;42.656;23.312;2023-08-24T00:19:37;12.93;;;8.18;;
7169;SDS011;3626;42.656;23.312;2023-08-24T00:19:42;12.85;;;8.15;;
7169;SDS011;3626;42.656;23.312;2023-08-24T00:19:48;12.57;;;8.20;;
7169;SDS011;3626;42.656;23.312;2023-08-24T00:19:54;12.15;;;8.10;;
7169;SDS011;3626;42.656;23.312;2023-08-24T00:20:00;12.37;;;8.13;;
7169;SDS011;3626;42.656;23.312;2023-08-24T00:20:09;12.40;;;8.50;;
7169;SDS011;3626;42.656;23.312;2023-08-24T00:20:15;12.70;;;8.68;;
7169;SDS011;3626;42.656;23.312;2023-08-24T00:20:21;13.20;;;8.77;;
7169;SDS011;3626;42.656;23.312;2023-08-24T00:20:28;13.30;;;8.60;;
7169;SDS011;3626;42.656;23.312;2023-08-24T00:20:34;13.32;;;8.68;;
7169;SDS011;3626;42.656;23.312;2023-08-24T00:20:42;13.50;;;8.77;;
7169;SDS011;3626;42.656;23.312;2023-08-24T00:20:48;13.88;;;8.82;;
7169;SDS011;3626;42.656;23.312;2023-08-24T00:20:53;14.50;;;8.95;;
7169;SDS011;3626;42.656;23.312;2023-08-24T00:20:59;14.07;;;8.83;;
7169;SDS011;3626;42.656;23.312;2023-08-24T00:21:05;13.55;;;8.55;;
7169;SDS011;3626;42.656;23.312;2023-08-24T00:21:13;13.23;;;8.33;;
7169;SDS011;3626;42.656;23.312;2023-08-24T00:21:21;13.38;;;8.21;;
7169;SDS011;3626;42.656;23.312;2023-08-24T00:21:28;14.10;;;8.43;;
7169;SDS011;3626;42.656;23.312;2023-08-24T00:21:33;14.37;;;8.50;;
7169;SDS011;3626;42.656;23.312;2023-08-24T00:21:39;14.43;;;8.60;;
7169;SDS011;3626;42.656;23.312;2023-08-24T00:21:45;14.45;;;8.60;;
7169;SDS011;3626;42.656;23.312;2023-08-24T00:21:51;13.88;;;8.60;;
7169;SDS011;3626;42.656;23.312;2023-08-24T00:21:57;13.95;;;8.68;;
7169;SDS011;3626;42.656;23.312;2023-08-24T00:22:03;14.30;;;8.73;;
7169;SDS011;3626;42.656;23.312;2023-08-24T00:22:09;14.73;;;8.85;;
7169;SDS011;3626;42.656;23.312;2023-08-24T00:22:15;14.52;;;8.80;;
7169;SDS011;3626;42.656;23.312;2023-08-24T00:22:20;13.87;;;8.70;;
7169;SDS011;3626;42.656;23.312;2023-08-24T00:22:26;13.05;;;8.52;;
7169;SDS011;3626;42.656;23.312;2023-08-24T00:22:32;12.63;;;8.40;;
7169;SDS011;3626;42.656;23.312;2023-08-24T00:22:37;12.40;;;8.30;;
7169;SDS011;3626;42.656;23.312;2023-08-24T00:22:44;12.40;;;8.12;;
7169;SDS011;3626;42.656;23.312;2023-08-24T00:22:50;12.17;;;7.90;;
7169;SDS011;3626;42.656;23.312;2023-08-24T00:22:56;11.73;;;7.80;;
7169;SDS011;3626;42.656;23.312;2023-08-24T00:23:02;11.65;;;7.95;;
7169;SDS011;3626;42.656;23.312;2023-08-24T00:23:08;11.40;;;7.93;;
7169;SDS011;3626;42.656;23.312;2023-08-24T00:23:14;11.63;;;8.10;;
7169;SDS011;3626;42.656;23.312;2023-08-24T00:23:20;13.32;;;8.25;;
7169;SDS011;3626;42.656;23.312;2023-08-24T00:23:26;13.43;;;8.32;;
7169;SDS011;3626;42.656;23.312;2023-08-24T00:23:31;13.40;;;8.33;;
7169;SDS011;3626;42.656;23.312;2023-08-24T00:23:37;13.32;;;8.40;;
7169;SDS011;3626;42.656;23.312;2023-08-24T00:23:43;12.93;;;8.40;;
7169;SDS011;3626;42.656;23.312;2023-08-24T00:23:49;13.15;;;8.40;;
7169;SDS011;3626;42.656;23.312;2023-08-24T00:23:55;13.50;;;8.45;;
7169;SDS011;3626;42.656;23.312;2023-08-24T00:24:00;13.87;;;8.70;;
7169;SDS011;3626;42.656;23.312;2023-08-24T00:24:06;14.45;;;8.77;;
7169;SDS011;3626;42.656;23.312;2023-08-24T00:24:12;14.82;;;8.77;;
7169;SDS011;3626;42.656;23.312;2023-08-24T00:24:18;13.88;;;8.77;;
7169;SDS011;3626;42.656;23.312;2023-08-24T00:24:24;13.10;;;8.77;;
7169;SDS011;3626;42.656;23.312;2023-08-24T00:24:31;13.20;;;8.73;;
7169;SDS011;3626;42.656;23.312;2023-08-24T00:24:37;13.27;;;8.85;;
7169;SDS011;3626;42.656;23.312;2023-08-24T00:24:42;13.50;;;9.07;;
7169;SDS011;3626;42.656;23.312;2023-08-24T00:24:49;13.80;;;9.13;;
7169;SDS011;3626;42.656;23.312;2023-08-24T00:24:54;13.63;;;9.02;;
7169;SDS011;3626;42.656;23.312;2023-08-24T00:25:00;13.32;;;8.77;;
7169;SDS011;3626;42.656;23.312;2023-08-24T00:25:06;12.95;;;8.70;;
7169;SDS011;3626;42.656;23.312;2023-08-24T00:25:12;12.90;;;8.70;;
7169;SDS011;3626;42.656;23.312;2023-08-24T00:25:19;12.90;;;8.68;;
7169;SDS011;3626;42.656;23.312;2023-08-24T00:25:25;12.73;;;8.50;;
7169;SDS011;3626;42.656;23.312;2023-08-24T00:25:31;12.77;;;8.50;;
7169;SDS011;3626;42.656;23.312;2023-08-24T00:25:36;12.70;;;8.38;;
7169;SDS011;3626;42.656;23.312;2023-08-24T00:25:42;13.15;;;8.38;;
7169;SDS011;3626;42.656;23.312;2023-08-24T00:25:48;12.83;;;8.40;;
7169;SDS011;3626;42.656;23.312;2023-08-24T00:25:54;12.75;;;8.40;;
7169;SDS011;3626;42.656;23.312;2023-08-24T00:25:59;12.60;;;8.40;;
7169;SDS011;3626;42.656;23.312;2023-08-24T00:26:05;12.05;;;8.15;;
7169;SDS011;3626;42.656;23.312;2023-08-24T00:26:11;11.60;;;7.97;;
7169;SDS011;3626;42.656;23.312;2023-08-24T00:26:18;11.50;;;7.92;;
7169;SDS011;3626;42.656;23.312;2023-08-24T00:26:23;11.80;;;8.10;;
7169;SDS011;3626;42.656;23.312;2023-08-24T00:26:30;11.77;;;8.20;;
7169;SDS011;3626;42.656;23.312;2023-08-24T00:26:35;11.77;;;8.20;;
7169;SDS011;3626;42.656;23.312;2023-08-24T00:26:42;11.30;;;8.10;;
7169;SDS011;3626;42.656;23.312;2023-08-24T00:26:48;10.82;;;7.80;;
7169;SDS011;3626;42.656;23.312;2023-08-24T00:26:55;10.93;;;7.72;;
7169;SDS011;3626;42.656;23.312;2023-08-24T00:27:00;10.77;;;7.72;;
7169;SDS011;3626;42.656;23.312;2023-08-24T00:27:06;11.00;;;7.88;;
7169;SDS011;3626;42.656;23.312;2023-08-24T00:27:12;11.30;;;7.90;;
7169;SDS011;3626;42.656;23.312;2023-08-24T00:27:18;11.30;;;7.83;;
7169;SDS011;3626;42.656;23.312;2023-08-24T00:27:24;11.17;;;7.90;;
7169;SDS011;3626;42.656;23.312;2023-08-24T00:27:30;11.38;;;7.90;;
7169;SDS011;3626;42.656;23.312;2023-08-24T00:27:36;11.63;;;7.93;;
7169;SDS011;3626;42.656;23.312;2023-08-24T00:27:42;12.52;;;8.20;;
7169;SDS011;3626;42.656;23.312;2023-08-24T00:27:48;12.90;;;8.60;;
7169;SDS011;3626;42.656;23.312;2023-08-24T00:27:53;12.95;;;8.68;;
7169;SDS011;3626;42.656;23.312;2023-08-24T00:27:59;13.68;;;8.85;;
7169;SDS011;3626;42.656;23.312;2023-08-24T00:28:06;14.10;;;8.90;;
7169;SDS011;3626;42.656;23.312;2023-08-24T00:28:12;14.68;;;9.00;;
7169;SDS011;3626;42.656;23.312;2023-08-24T00:28:18;14.53;;;9.00;;
7169;SDS011;3626;42.656;23.312;2023-08-24T00:28:24;14.48;;;9.00;;
7169;SDS011;3626;42.656;23.312;2023-08-24T00:28:30;16.30;;;9.02;;
7169;SDS011;3626;42.656;23.312;2023-08-24T00:28:36;16.35;;;9.00;;
7169;SDS011;3626;42.656;23.312;2023-08-24T00:28:42;16.00;;;9.00;;
7169;SDS011;3626;42.656;23.312;2023-08-24T00:28:48;16.02;;;9.02;;
7169;SDS011;3626;42.656;23.312;2023-08-24T00:28:54;16.38;;;9.10;;
7169;SDS011;3626;42.656;23.312;2023-08-24T00:28:59;16.95;;;8.98;;
7169;SDS011;3626;42.656;23.312;2023-08-24T00:29:05;16.90;;;9.02;;
7169;SDS011;3626;42.656;23.312;2023-08-24T00:29:11;16.23;;;9.10;;
7169;SDS011;3626;42.656;23.312;2023-08-24T00:29:17;16.52;;;9.27;;
7169;SDS011;3626;42.656;23.312;2023-08-24T00:29:22;19.02;;;9.30;;
7169;SDS011;3626;42.656;23.312;2023-08-24T00:29:28;18.42;;;9.23;;
7169;SDS011;3626;42.656;23.312;2023-08-24T00:29:34;17.40;;;9.20;;
7169;SDS011;3626;42.656;23.312;2023-08-24T00:29:40;16.85;;;8.95;;
7169;SDS011;3626;42.656;23.312;2023-08-24T00:29:46;16.52;;;8.73;;
7169;SDS011;3626;42.656;23.312;2023-08-24T00:29:53;16.14;;;8.68;;
7169;SDS011;3626;42.656;23.312;2023-08-24T00:29:59;14.95;;;8.73;;
7169;SDS011;3626;42.656;23.312;2023-08-24T00:30:05;14.80;;;8.68;;
7169;SDS011;3626;42.656;23.312;2023-08-24T00:30:12;14.87;;;8.67;;
7169;SDS011;3626;42.656;23.312;2023-08-24T00:30:18;14.15;;;8.40;;
7169;SDS011;3626;42.656;23.312;2023-08-24T00:30:24;11.80;;;8.35;;
7169;SDS011;3626;42.656;23.312;2023-08-24T00:30:30;11.77;;;8.35;;
7169;SDS011;3626;42.656;23.312;2023-08-24T00:30:36;12.75;;;8.60;;
7169;SDS011;3626;42.656;23.312;2023-08-24T00:30:41;13.60;;;8.80;;
7169;SDS011;3626;42.656;23.312;2023-08-24T00:30:47;13.90;;;8.87;;
7169;SDS011;3626;42.656;23.312;2023-08-24T00:30:53;14.05;;;8.80;;
7169;SDS011;3626;42.656;23.312;2023-08-24T00:30:59;14.18;;;8.70;;
7169;SDS011;3626;42.656;23.312;2023-08-24T00:31:04;15.98;;;8.70;;
7169;SDS011;3626;42.656;23.312;2023-08-24T00:31:10;15.83;;;8.60;;
7169;SDS011;3626;42.656;23.312;2023-08-24T00:31:17;15.88;;;8.68;;
7169;SDS011;3626;42.656;23.312;2023-08-24T00:31:23;16.34;;;8.78;;
7169;SDS011;3626;42.656;23.312;2023-08-24T00:31:29;16.13;;;8.83;;
7169;SDS011;3626;42.656;23.312;2023-08-24T00:31:35;16.05;;;8.68;;
7169;SDS011;3626;42.656;23.312;2023-08-24T00:31:41;15.13;;;8.40;;
7169;SDS011;3626;42.656;23.312;2023-08-24T00:31:47;15.15;;;8.43;;
7169;SDS011;3626;42.656;23.312;2023-08-24T00:31:53;15.07;;;8.57;;
7169;SDS011;3626;42.656;23.312;2023-08-24T00:31:58;15.13;;;8.73;;
7169;SDS011;3626;42.656;23.312;2023-08-24T00:32:04;13.43;;;8.80;;
7169;SDS011;3626;42.656;23.312;2023-08-24T00:32:10;13.32;;;8.77;;
7169;SDS011;3626;42.656;23.312;2023-08-24T00:32:15;13.45;;;8.77;;
7169;SDS011;3626;42.656;23.312;2023-08-24T00:32:22;12.74;;;8.70;;
7169;SDS011;3626;42.656;23.312;2023-08-24T00:32:29;12.73;;;8.87;;
7169;SDS011;3626;42.656;23.312;2023-08-24T00:32:35;12.20;;;8.90;;
7169;SDS011;3626;42.656;23.312;2023-08-24T00:32:41;12.38;;;9.12;;
7169;SDS011;3626;42.656;23.312;2023-08-24T00:32:46;12.40;;;9.17;;
7169;SDS011;3626;42.656;23.312;2023-08-24T00:32:52;12.50;;;9.18;;
7169;SDS011;3626;42.656;23.312;2023-08-24T00:32:58;13.50;;;9.30;;
7169;SDS011;3626;42.656;23.312;2023-08-24T00:33:04;13.50;;;9.22;;
7169;SDS011;3626;42.656;23.312;2023-08-24T00:33:10;13.63;;;9.30;;
7169;SDS011;3626;42.656;23.312;2023-08-24T00:33:16;13.73;;;9.25;;
7169;SDS011;3626;42.656;23.312;2023-08-24T00:33:22;14.40;;;9.40;;
7169;SDS011;3626;42.656;23.312;2023-08-24T00:33:27;14.47;;;9.13;;
7169;SDS011;3626;42.656;23.312;2023-08-24T00:33:33;14.65;;;9.10;;
7169;SDS011;3626;42.656;23.312;2023-08-24T00:33:39;14.85;;;9.20;;
7169;SDS011;3626;42.656;23.312;2023-08-24T00:33:45;15.25;;;9.10;;
7169;SDS011;3626;42.656;23.312;2023-08-24T00:33:50;14.93;;;9.03;;
7169;SDS011;3626;42.656;23.312;2023-08-24T00:33:56;14.32;;;8.85;;
7169;SDS011;3626;42.656;23.312;2023-08-24T00:34:02;13.68;;;8.68;;
7169;SDS011;3626;42.656;23.312;2023-08-24T00:34:08;13.90;;;8.90;;
7169;SDS011;3626;42.656;23.312;2023-08-24T00:34:14;13.80;;;8.93;;
7169;SDS011;3626;42.656;23.312;2023-08-24T00:34:20;13.60;;;8.93;;
7169;SDS011;3626;42.656;23.312;2023-08-24T00:34:25;13.67;;;9.00;;
7169;SDS011;3626;42.656;23.312;2023-08-24T00:34:31;13.43;;;9.00;;
7169;SDS011;3626;42.656;23.312;2023-08-24T00:34:37;13.48;;;9.10;;
7169;SDS011;3626;42.656;23.312;2023-08-24T00:34:43;12.97;;;9.13;;
7169;SDS011;3626;42.656;23.312;2023-08-24T00:34:49;13.04;;;9.20;;
7169;SDS011;3626;42.656;23.312;2023-08-24T00:34:55;13.75;;;9.27;;
7169;SDS011;3626;42.656;23.312;2023-08-24T00:35:01;15.93;;;9.52;;
7169;SDS011;3626;42.656;23.312;2023-08-24T00:35:08;15.82;;;9.38;;
7169;SDS011;3626;42.656;23.312;2023-08-24T00:35:15;15.45;;;9.15;;
7169;SDS011;3626;42.656;23.312;2023-08-24T00:35:21;15.53;;;9.13;;
7169;SDS011;3626;42.656;23.312;2023-08-24T00:35:26;16.20;;;8.80;;
7169;SDS011;3626;42.656;23.312;2023-08-24T00:35:32;16.17;;;8.63;;
7169;SDS011;3626;42.656;23.312;2023-08-24T00:35:38;15.63;;;8.27;;
7169;SDS011;3626;42.656;23.312;2023-08-24T00:35:44;16.23;;;8.30;;
7169;SDS011;3626;42.656;23.312;2023-08-24T00:35:50;16.27;;;8.30;;
7169;SDS011;3626;42.656;23.312;2023-08-24T00:35:58;15.70;;;8.30;;
7169;SDS011;3626;42.656;23.312;2023-08-24T00:36:05;13.99;;;8.24;;
7169;SDS011;3626;42.656;23.312;2023-08-24T00:36:11;14.07;;;8.32;;
7169;SDS011;3626;42.656;23.312;2023-08-24T00:36:17;14.13;;;8.32;;
7169;SDS011;3626;42.656;23.312;2023-08-24T00:36:23;12.77;;;8.20;;
7169;SDS011;3626;42.656;23.312;2023-08-24T00:36:30;12.63;;;8.57;;
7169;SDS011;3626;42.656;23.312;2023-08-24T00:36:36;12.85;;;8.70;;
7169;SDS011;3626;42.656;23.312;2023-08-24T00:36:42;12.97;;;8.60;;